Time;durP1;ratioP1;P1;durP2;ratioP2;P2;SDS_P1;SDS_P2;PMS_P1;PMS_P2;Temp;Humidity;BMP_temperature;BMP_pressure;BME280_temperature;BME280_humidity;BME280_pressure;Samples;Min_cycle;Max_cycle;Signal;HPM_P1;HPM_P2
2022/09/04 00:01:57;;;;;;;7.65;2.05;;;;;;;16.26;69.58;100282.07;1802687;79;21734;-80
2022/09/04 00:05:24;;;;;;;3.85;2.15;;;;;;;16.05;70.04;100280.94;1802673;79;21220;-80
2022/09/04 00:08:59;;;;;;;6.60;2.62;;;;;;;16.09;70.07;100284.44;1801258;79;21240;-80
2022/09/04 00:12:12;;;;;;;7.70;2.50;;;;;;;16.20;69.79;100285.70;1802489;79;21692;-80
2022/09/04 00:15:26;;;;;;;9.35;2.10;;;;;;;16.07;70.42;100292.06;1802771;79;21177;-81
2022/09/04 00:18:42;;;;;;;9.95;2.70;;;;;;;16.02;70.72;100291.01;1801025;79;21204;-80
2022/09/04 00:22:01;;;;;;;5.55;2.30;;;;;;;16.06;70.71;100286.23;1815286;79;21746;-80
2022/09/04 00:25:11;;;;;;;7.67;2.30;;;;;;;16.15;70.44;100288.78;1816940;79;21206;-80
2022/09/04 00:28:25;;;;;;;7.22;2.30;;;;;;;16.03;70.75;100287.18;1815929;79;21695;-80
2022/09/04 00:31:44;;;;;;;4.17;2.00;;;;;;;15.95;71.26;100291.52;1815377;79;21833;-80
2022/09/04 00:35:11;;;;;;;5.92;2.55;;;;;;;16.00;71.00;100301.42;1817925;79;21180;-80
2022/09/04 00:38:54;;;;;;;4.60;1.98;;;;;;;15.75;71.61;100302.55;1815908;79;21810;-82
2022/09/04 00:42:18;;;;;;;3.72;2.20;;;;;;;15.81;71.54;100299.81;1816934;79;21180;-81
2022/09/04 00:45:40;;;;;;;6.15;2.12;;;;;;;15.81;71.82;100293.45;1816850;79;21182;-82
2022/09/04 00:48:52;;;;;;;4.78;2.02;;;;;;;15.87;71.87;100297.27;1815876;79;22576;-82
2022/09/04 00:52:13;;;;;;;2.62;1.70;;;;;;;15.80;71.86;100280.16;1817032;79;21227;-81
2022/09/04 00:55:35;;;;;;;2.90;1.95;;;;;;;15.63;72.79;100286.30;1817019;79;21172;-81
2022/09/04 00:59:14;;;;;;;5.90;2.75;;;;;;;15.49;73.61;100295.91;1815784;79;21216;-80
2022/09/04 01:02:44;;;;;;;6.95;2.17;;;;;;;15.44;73.97;100287.95;1816903;79;21173;-80
2022/09/04 01:06:03;;;;;;;3.98;1.82;;;;;;;15.52;73.71;100286.36;1817054;79;21223;-80
2022/09/04 01:09:52;;;;;;;4.85;2.47;;;;;;;15.59;73.68;100290.84;1815438;79;21172;-80
2022/09/04 01:13:36;;;;;;;6.00;1.95;;;;;;;15.41;74.09;100275.95;1815604;79;21180;-80
2022/09/04 01:17:08;;;;;;;3.67;1.65;;;;;;;15.34;74.42;100275.95;1817132;79;21215;-80
2022/09/04 01:20:35;;;;;;;4.40;2.35;;;;;;;15.40;74.37;100283.91;1812110;79;21907;-81
2022/09/04 01:24:11;;;;;;;2.35;1.92;;;;;;;15.22;74.99;100273.47;1802691;79;21173;-80
2022/09/04 01:27:23;;;;;;;5.35;2.15;;;;;;;15.33;74.75;100276.98;1802802;79;21181;-80
2022/09/04 01:30:30;;;;;;;4.60;2.33;;;;;;;15.18;75.25;100283.20;1802830;79;21189;-80
2022/09/04 01:34:11;;;;;;;4.03;1.98;;;;;;;15.10;75.47;100284.22;1802796;79;21358;-81
2022/09/04 01:37:46;;;;;;;7.20;2.83;;;;;;;15.32;75.10;100279.43;1802730;79;21180;-81
2022/09/04 01:41:00;;;;;;;5.17;1.85;;;;;;;15.23;75.19;100286.19;1802750;79;21191;-81
2022/09/04 01:44:05;;;;;;;2.92;1.92;;;;;;;15.22;75.32;100278.98;1802688;79;21751;-80
2022/09/04 01:47:34;;;;;;;3.90;1.85;;;;;;;15.27;75.03;100284.72;1801256;79;21228;-81
2022/09/04 01:50:39;;;;;;;3.35;1.90;;;;;;;15.20;75.09;100276.44;1801568;79;21193;-80
2022/09/04 01:53:46;;;;;;;6.78;2.17;;;;;;;15.30;75.06;100278.80;1802739;79;21118;-80
2022/09/04 01:57:21;;;;;;;3.85;1.82;;;;;;;15.24;75.24;100280.98;1802698;79;21240;-80
2022/09/04 02:00:29;;;;;;;2.65;1.80;;;;;;;15.20;75.20;100283.33;1802650;79;21173;-80
2022/09/04 02:03:59;;;;;;;7.17;2.17;;;;;;;15.26;75.13;100275.61;1801285;79;21173;-80
2022/09/04 02:07:20;;;;;;;4.33;1.90;;;;;;;15.23;75.15;100280.67;1778326;79;21232;-80
2022/09/04 02:10:51;;;;;;;4.15;1.98;;;;;;;15.12;75.39;100289.55;1784622;79;21236;-80
2022/09/04 02:14:24;;;;;;;4.83;2.12;;;;;;;14.98;75.84;100306.02;1801496;79;21181;-80
2022/09/04 02:17:56;;;;;;;4.40;2.40;;;;;;;15.07;75.60;100298.43;1801323;79;21248;-80
2022/09/04 02:21:07;;;;;;;4.45;1.75;;;;;;;15.02;75.97;100296.30;1800547;79;21248;-81
2022/09/04 02:24:35;;;;;;;7.90;2.52;;;;;;;15.12;75.69;100282.66;1795545;80;21495;-80
2022/09/04 02:28:03;;;;;;;2.77;2.22;;;;;;;14.98;75.92;100290.02;1795430;80;21276;-81
2022/09/04 02:31:30;;;;;;;9.20;2.95;;;;;;;15.07;75.62;100291.55;1778526;80;21185;-80
2022/09/04 02:35:02;;;;;;;5.80;3.17;;;;;;;14.97;75.77;100313.12;1795583;80;21676;-81
2022/09/04 02:38:15;;;;;;;3.87;2.80;;;;;;;15.04;75.72;100298.83;1795433;80;21167;-81
2022/09/04 02:41:52;;;;;;;4.37;2.25;;;;;;;14.92;75.75;100288.09;1793988;80;21170;-81
2022/09/04 02:45:25;;;;;;;5.53;2.40;;;;;;;14.83;76.04;100269.52;1795394;80;21724;-81
2022/09/04 02:48:56;;;;;;;3.42;1.82;;;;;;;14.90;75.77;100284.69;1795326;80;21161;-81
2022/09/04 02:52:42;;;;;;;4.20;2.30;;;;;;;14.97;75.09;100294.69;1795154;80;21260;-81
2022/09/04 02:56:39;;;;;;;4.83;2.10;;;;;;;14.90;75.12;100297.92;1795406;80;21800;-81
2022/09/04 03:00:18;;;;;;;3.80;2.40;;;;;;;14.90;75.18;100300.67;1794490;80;21744;-81
2022/09/04 03:03:21;;;;;;;2.22;1.75;;;;;;;15.04;74.75;100301.05;1795276;80;21213;-80
2022/09/04 03:07:00;;;;;;;4.12;2.10;;;;;;;14.96;74.66;100297.13;1794721;80;21786;-81
2022/09/04 03:10:23;;;;;;;8.18;2.40;;;;;;;15.02;74.43;100299.05;1794359;80;21177;-81
2022/09/04 03:13:33;;;;;;;3.12;2.08;;;;;;;15.18;73.40;100312.13;1795470;80;21213;-81
2022/09/04 03:16:50;;;;;;;6.45;2.15;;;;;;;15.13;73.33;100300.88;1795483;80;21831;-82
2022/09/04 03:20:11;;;;;;;6.80;2.17;;;;;;;15.13;73.36;100318.26;1794808;80;21217;-82
2022/09/04 03:23:51;;;;;;;5.15;1.70;;;;;;;15.02;73.44;100318.33;1799330;79;21863;-81
2022/09/04 03:27:06;;;;;;;3.60;1.70;;;;;;;14.98;73.51;100321.16;1744271;82;21192;-81
2022/09/04 03:30:16;;;;;;;2.75;2.00;;;;;;;14.91;73.88;100307.87;1739115;82;21322;-82
2022/09/04 03:33:32;;;;;;;3.98;1.98;;;;;;;14.83;73.93;100297.05;1734230;82;21181;-81
2022/09/04 03:36:30;;;;;;;3.00;1.85;;;;;;;15.05;73.09;100312.39;1803542;79;21200;-81
2022/09/04 03:39:26;;;;;;;2.37;1.70;;;;;;;14.85;73.97;100312.84;1801310;79;21260;-81
2022/09/04 03:42:28;;;;;;;3.20;2.00;;;;;;;14.66;74.73;100308.92;1802725;79;21217;-80
2022/09/04 03:45:48;;;;;;;9.33;2.50;;;;;;;14.72;74.63;100305.88;1802713;79;21189;-81
2022/09/04 03:49:15;;;;;;;4.10;1.82;;;;;;;14.96;73.96;100310.89;1730989;82;21201;-81
2022/09/04 03:52:36;;;;;;;7.12;2.62;;;;;;;15.00;73.55;100319.05;1801723;79;21328;-81
2022/09/04 03:56:02;;;;;;;3.33;2.10;;;;;;;15.04;73.62;100334.11;1745939;79;21272;-82
2022/09/04 03:59:19;;;;;;;9.03;2.40;;;;;;;15.22;72.96;100336.31;1802776;79;21232;-82
2022/09/04 04:02:53;;;;;;;5.30;1.62;;;;;;;14.97;74.02;100322.76;1802932;79;21193;-81
2022/09/04 04:06:20;;;;;;;3.55;2.10;;;;;;;15.07;73.66;100332.33;1802506;79;21196;-80
2022/09/04 04:09:40;;;;;;;6.65;2.50;;;;;;;15.11;73.43;100337.45;1802583;79;21181;-81
2022/09/04 04:13:32;;;;;;;8.70;2.58;;;;;;;15.13;73.28;100333.94;1801863;79;21173;-81
2022/09/04 04:17:13;;;;;;;3.37;2.10;;;;;;;15.17;72.99;100343.50;1800407;79;22005;-80
2022/09/04 04:21:00;;;;;;;3.63;2.20;;;;;;;15.30;72.60;100332.53;1801358;79;21779;-81
2022/09/04 04:24:27;;;;;;;5.00;2.37;;;;;;;15.25;72.88;100339.20;1799730;79;21731;-81
2022/09/04 04:28:03;;;;;;;9.88;2.42;;;;;;;15.26;73.05;100340.36;1802672;79;21185;-81
2022/09/04 04:31:27;;;;;;;3.27;1.95;;;;;;;15.40;72.76;100341.26;1801594;79;21189;-81
2022/09/04 04:34:38;;;;;;;5.15;2.60;;;;;;;15.34;72.44;100351.20;1802681;79;21795;-81
2022/09/04 04:38:23;;;;;;;7.15;2.77;;;;;;;15.49;72.23;100359.84;1801941;79;21196;-81
2022/09/04 04:45:50;;;;;;;4.05;1.90;;;;;;;15.63;71.68;100360.73;1802874;79;21477;-81
2022/09/04 04:49:12;;;;;;;3.83;2.45;;;;;;;15.65;71.61;100370.52;1801232;79;21176;-81
2022/09/04 04:52:39;;;;;;;7.35;2.90;;;;;;;15.67;71.72;100396.52;1802475;79;21760;-82
2022/09/04 04:55:55;;;;;;;6.37;2.60;;;;;;;15.68;71.56;100393.55;1787711;79;21220;-81
2022/09/04 04:59:33;;;;;;;5.03;2.47;;;;;;;15.74;71.42;100389.09;1801108;79;21157;-80
2022/09/04 05:03:07;;;;;;;7.00;2.90;;;;;;;15.75;70.97;100383.89;1802463;79;21153;-81
2022/09/04 05:06:41;;;;;;;3.30;2.30;;;;;;;16.12;69.99;100383.86;1718164;83;21180;-80
2022/09/04 05:10:05;;;;;;;6.08;2.65;;;;;;;16.21;69.59;100374.84;1685246;85;21244;-80
2022/09/04 05:14:05;;;;;;;7.67;2.35;;;;;;;16.25;68.98;100387.17;1717984;83;21157;-76
2022/09/04 05:17:32;;;;;;;4.80;2.57;;;;;;;15.92;69.93;100378.86;1718344;83;21180;-80
2022/09/04 05:20:54;;;;;;;9.50;3.55;;;;;;;16.00;69.72;100383.65;1684945;85;21269;-77
2022/09/04 05:24:33;;;;;;;3.62;2.65;;;;;;;16.15;69.09;100388.97;1718372;83;21184;-80
2022/09/04 05:28:15;;;;;;;8.28;3.40;;;;;;;16.09;69.31;100392.05;1686475;85;21177;-81
2022/09/04 05:32:02;;;;;;;5.35;2.87;;;;;;;16.18;69.36;100391.81;1717651;83;21179;-80
2022/09/04 05:35:22;;;;;;;10.18;3.10;;;;;;;16.07;69.16;100390.01;1685408;85;21220;-80
2022/09/04 05:39:10;;;;;;;10.25;3.27;;;;;;;16.04;69.33;100397.34;1686343;85;21761;-78
2022/09/04 05:42:41;;;;;;;4.78;2.75;;;;;;;16.17;69.29;100399.78;1685375;85;21221;-81
2022/09/04 05:46:00;;;;;;;7.12;2.95;;;;;;;16.31;68.97;100404.25;1718817;83;21160;-77
2022/09/04 05:49:25;;;;;;;7.65;2.40;;;;;;;16.47;68.42;100399.70;1686421;85;21185;-78
2022/09/04 05:53:03;;;;;;;4.28;2.60;;;;;;;16.71;67.44;100401.50;1717385;83;21172;-78
2022/09/04 05:56:18;;;;;;;4.70;2.33;;;;;;;16.90;67.03;100413.08;1686521;85;21180;-78
2022/09/04 05:59:52;;;;;;;8.93;2.52;;;;;;;16.95;66.75;100415.20;1686043;85;21773;-81
2022/09/04 06:03:10;;;;;;;4.62;2.58;;;;;;;17.03;66.71;100416.33;1718647;83;21180;-78
2022/09/04 06:06:04;;;;;;;7.10;2.42;;;;;;;17.27;66.74;100423.94;1691903;83;21291;-80
2022/09/04 06:09:18;;;;;;;4.60;2.45;;;;;;;17.36;66.32;100416.22;1693724;85;21195;-78
2022/09/04 06:12:57;;;;;;;4.37;2.50;;;;;;;17.52;65.40;100430.12;1692757;85;21248;-81
2022/09/04 06:16:15;;;;;;;6.70;2.70;;;;;;;17.56;64.53;100430.00;1694117;85;21192;-81
2022/09/04 06:19:34;;;;;;;9.78;2.80;;;;;;;17.52;64.61;100432.34;1693650;85;21235;-79
2022/09/04 06:23:19;;;;;;;5.12;2.83;;;;;;;17.52;64.45;100433.73;1692811;85;21248;-79
2022/09/04 06:26:48;;;;;;;13.80;2.27;;;;;;;17.54;64.66;100432.97;1688011;85;21228;-78
2022/09/04 06:30:13;;;;;;;3.87;2.80;;;;;;;17.69;65.20;100440.13;1694536;84;21821;-78
2022/09/04 06:33:46;;;;;;;5.08;2.77;;;;;;;17.93;63.46;100446.34;1694230;85;21157;-78
2022/09/04 06:37:18;;;;;;;7.65;2.42;;;;;;;17.80;63.82;100443.11;1694174;85;21184;-78
2022/09/04 06:40:41;;;;;;;5.67;2.70;;;;;;;17.78;63.81;100452.14;1694165;85;21267;-77
2022/09/04 06:44:02;;;;;;;5.17;2.50;;;;;;;17.76;64.06;100461.75;1686938;84;21208;-78
2022/09/04 06:47:34;;;;;;;7.60;2.35;;;;;;;17.71;63.36;100461.53;1694089;85;21216;-80
2022/09/04 06:51:06;;;;;;;4.78;2.77;;;;;;;17.63;63.33;100453.77;1681813;85;21216;-80
2022/09/04 06:54:45;;;;;;;4.90;2.22;;;;;;;17.62;63.50;100463.69;1693827;85;21228;-77
2022/09/04 06:58:04;;;;;;;3.50;2.30;;;;;;;17.60;63.77;100468.06;1677282;85;21200;-81
2022/09/04 07:01:13;;;;;;;8.45;3.00;;;;;;;17.69;63.83;100469.18;1701920;84;21185;-77
2022/09/04 07:04:27;;;;;;;7.25;2.52;;;;;;;17.68;63.29;100477.17;1693808;85;21247;-77
2022/09/04 07:08:06;;;;;;;7.80;2.30;;;;;;;17.70;63.03;100483.34;1692703;85;21192;-78
2022/09/04 07:11:56;;;;;;;5.40;1.95;;;;;;;17.72;63.03;100475.66;1701892;84;21516;-80
2022/09/04 07:15:38;;;;;;;7.60;2.60;;;;;;;17.84;62.51;100479.48;1693015;84;21733;-80
2022/09/04 07:19:06;;;;;;;5.53;1.85;;;;;;;17.96;61.84;100486.02;1684980;85;21220;-81
2022/09/04 07:22:47;;;;;;;3.98;1.75;;;;;;;18.00;60.62;100485.05;1693657;85;21756;-81
2022/09/04 07:25:59;;;;;;;4.90;1.65;;;;;;;18.17;59.54;100495.92;1694189;85;21173;-77
2022/09/04 07:29:40;;;;;;;3.42;1.70;;;;;;;18.28;60.46;100484.67;1693813;85;21211;-81
2022/09/04 07:32:54;;;;;;;3.62;1.52;;;;;;;18.35;59.46;100493.26;1693275;85;21192;-81
2022/09/04 07:36:12;;;;;;;3.75;1.80;;;;;;;18.69;57.81;100502.75;1693074;85;21216;-78
2022/09/04 07:39:37;;;;;;;1.82;1.15;;;;;;;18.67;57.42;100497.92;1693587;85;21223;-78
2022/09/04 07:43:06;;;;;;;2.90;1.30;;;;;;;18.69;55.91;100516.06;1693342;85;21212;-78
2022/09/04 07:46:20;;;;;;;3.62;1.45;;;;;;;18.72;56.61;100500.89;1693950;85;21224;-81
2022/09/04 07:50:01;;;;;;;3.00;1.27;;;;;;;18.70;56.05;100508.59;1693566;85;21223;-77
2022/09/04 07:53:41;;;;;;;2.42;1.40;;;;;;;18.82;56.44;100510.94;1694152;85;21184;-77
2022/09/04 07:57:11;;;;;;;2.75;1.47;;;;;;;18.85;56.54;100513.27;1692754;85;21169;-80
2022/09/04 08:00:24;;;;;;;3.90;1.35;;;;;;;18.57;55.84;100514.50;1687207;85;21195;-77
2022/09/04 08:03:46;;;;;;;2.27;1.10;;;;;;;18.50;55.69;100515.10;1693749;85;21539;-77
2022/09/04 08:07:08;;;;;;;2.83;1.22;;;;;;;18.65;55.28;100515.63;1688338;84;21217;-82
2022/09/04 08:10:49;;;;;;;3.05;1.45;;;;;;;18.86;54.07;100521.34;1679003;85;21276;-78
2022/09/04 08:14:26;;;;;;;3.92;1.32;;;;;;;18.69;54.95;100509.68;1678740;85;21240;-81
2022/09/04 08:18:09;;;;;;;3.00;1.30;;;;;;;18.76;55.36;100509.08;1678850;85;21229;-79
2022/09/04 08:21:39;;;;;;;2.50;1.40;;;;;;;18.80;55.20;100509.78;1678735;85;21265;-81
2022/09/04 08:25:15;;;;;;;2.12;1.17;;;;;;;18.94;55.08;100513.84;1678174;85;21215;-78
2022/09/04 08:28:34;;;;;;;1.50;1.20;;;;;;;18.97;55.03;100517.55;1678771;85;21801;-78
2022/09/04 08:32:16;;;;;;;6.28;1.05;;;;;;;19.12;54.73;100510.58;1678694;85;21181;-79
2022/09/04 08:35:40;;;;;;;5.60;1.40;;;;;;;18.95;54.97;100514.98;1678754;85;21265;-79
2022/09/04 08:39:03;;;;;;;2.50;1.17;;;;;;;19.16;53.24;100522.06;1678738;85;21244;-78
2022/09/04 08:42:21;;;;;;;2.22;1.20;;;;;;;19.13;52.97;100534.45;1678736;85;21229;-79
2022/09/04 08:45:50;;;;;;;3.83;1.20;;;;;;;19.21;53.23;100520.84;1677579;85;21212;-77
2022/09/04 08:49:06;;;;;;;2.00;1.10;;;;;;;19.18;54.95;100526.83;1678539;85;21197;-81
2022/09/04 08:52:51;;;;;;;4.33;1.37;;;;;;;19.12;53.31;100524.44;1677947;85;21844;-81
2022/09/04 08:56:35;;;;;;;2.30;1.30;;;;;;;19.09;54.07;100529.04;1678817;85;21204;-80
2022/09/04 08:59:57;;;;;;;2.52;1.15;;;;;;;19.05;53.23;100534.72;1678121;85;21537;-76
2022/09/04 09:03:35;;;;;;;1.87;1.35;;;;;;;19.08;52.39;100537.59;1677204;85;21220;-77
2022/09/04 09:06:58;;;;;;;2.20;1.42;;;;;;;19.14;52.23;100543.06;1678452;85;21220;-81
2022/09/04 09:10:37;;;;;;;4.50;1.30;;;;;;;19.15;52.66;100559.20;1715543;83;21196;-81
2022/09/04 09:14:04;;;;;;;1.62;1.27;;;;;;;19.09;53.76;100555.92;1679104;85;21202;-77
2022/09/04 09:17:23;;;;;;;3.52;1.47;;;;;;;19.04;52.27;100555.75;1679765;85;21184;-76
2022/09/04 09:20:59;;;;;;;2.08;1.30;;;;;;;19.14;52.47;100561.09;1679792;85;21228;-80
2022/09/04 09:24:29;;;;;;;2.50;1.40;;;;;;;19.09;52.60;100560.92;1678897;85;21785;-77
2022/09/04 09:27:59;;;;;;;2.15;1.40;;;;;;;19.04;52.89;100559.37;1679844;85;21833;-78
2022/09/04 09:31:29;;;;;;;2.17;1.07;;;;;;;19.06;52.87;100565.55;1679930;85;21181;-81
2022/09/04 09:35:13;;;;;;;3.83;1.30;;;;;;;19.22;51.95;100566.90;1678880;85;21208;-82
2022/09/04 09:38:36;;;;;;;5.33;1.20;;;;;;;19.26;52.39;100556.20;1678855;85;21833;-81
2022/09/04 09:41:52;;;;;;;1.87;1.00;;;;;;;19.26;52.88;100557.59;1679749;85;21229;-77
2022/09/04 09:45:28;;;;;;;2.50;1.40;;;;;;;19.38;51.92;100557.14;1678677;85;21569;-82
2022/09/04 09:49:12;;;;;;;2.27;1.20;;;;;;;19.46;50.95;100556.01;1675055;85;21193;-83
2022/09/04 09:52:43;;;;;;;4.75;1.15;;;;;;;19.49;50.64;100558.34;1679611;85;21220;-82
2022/09/04 09:56:25;;;;;;;2.45;1.22;;;;;;;19.73;50.14;100558.00;1679810;85;21177;-82
2022/09/04 09:59:45;;;;;;;3.70;1.37;;;;;;;19.90;49.03;100562.72;1679202;85;21792;-81
2022/09/04 10:03:12;;;;;;;3.35;1.10;;;;;;;20.07;49.12;100567.09;1679669;85;21710;-77
2022/09/04 10:06:31;;;;;;;2.60;1.02;;;;;;;19.96;49.83;100573.43;1679648;85;21229;-81
2022/09/04 10:10:09;;;;;;;3.02;1.35;;;;;;;19.89;49.73;100568.48;1683252;83;21200;-82
2022/09/04 10:13:37;;;;;;;1.95;1.00;;;;;;;19.97;48.98;100576.52;1686344;85;21157;-77
2022/09/04 10:17:15;;;;;;;2.80;1.17;;;;;;;19.90;49.09;100575.21;1686392;85;21221;-82
2022/09/04 10:21:10;;;;;;;5.25;1.42;;;;;;;19.91;48.66;100576.91;1686292;85;21244;-80
2022/09/04 10:24:56;;;;;;;2.80;1.47;;;;;;;20.10;49.01;100583.84;1717504;83;21236;-77
2022/09/04 10:28:18;;;;;;;2.05;1.27;;;;;;;20.29;49.27;100579.95;1686628;85;21185;-76
2022/09/04 10:31:53;;;;;;;4.03;1.10;;;;;;;20.45;47.28;100577.06;1686294;85;21196;-81
2022/09/04 10:35:15;;;;;;;1.85;1.05;;;;;;;20.41;47.33;100577.22;1685313;85;21268;-76
2022/09/04 10:42:17;;;;;;;2.30;1.07;;;;;;;20.26;47.41;100586.52;1695264;84;21262;-81
2022/09/04 10:45:43;;;;;;;3.05;1.10;;;;;;;20.33;47.56;100585.91;1717288;83;21204;-82
2022/09/04 10:49:29;;;;;;;4.17;1.27;;;;;;;19.51;49.36;100588.08;1718434;83;21196;-82
2022/09/04 10:52:39;;;;;;;1.27;0.93;;;;;;;20.92;46.47;100590.61;1686416;85;21184;-82
2022/09/04 10:56:24;;;;;;;2.95;1.45;;;;;;;20.96;45.71;100595.16;1717243;83;21169;-76
2022/09/04 11:00:14;;;;;;;2.60;1.30;;;;;;;21.01;44.68;100603.64;1718003;83;21216;-81
2022/09/04 11:03:43;;;;;;;3.72;1.25;;;;;;;20.53;45.60;100603.17;1686245;85;21184;-77
2022/09/04 11:07:26;;;;;;;3.22;1.10;;;;;;;20.48;45.90;100609.98;1718507;83;21168;-81
2022/09/04 11:11:02;;;;;;;3.25;1.20;;;;;;;20.22;46.04;100608.34;1690568;83;21248;-78
2022/09/04 11:14:27;;;;;;;2.72;1.55;;;;;;;20.26;46.51;100605.95;1693738;85;21231;-82
2022/09/04 11:18:03;;;;;;;2.77;1.10;;;;;;;20.10;46.19;100613.84;1694088;84;21257;-78
2022/09/04 11:21:33;;;;;;;3.15;1.20;;;;;;;20.16;46.58;100610.13;1694010;85;21228;-82
2022/09/04 11:25:13;;;;;;;2.17;1.05;;;;;;;19.87;47.62;100610.36;1692771;85;21204;-82
2022/09/04 11:29:01;;;;;;;2.70;1.30;;;;;;;19.60;47.92;100611.16;1694025;85;21212;-77
2022/09/04 11:32:50;;;;;;;3.70;0.93;;;;;;;19.76;47.77;100617.19;1694083;85;21176;-82
2022/09/04 11:36:25;;;;;;;5.15;1.40;;;;;;;19.79;47.76;100613.42;1692460;84;21204;-77
2022/09/04 11:40:10;;;;;;;1.98;1.20;;;;;;;19.75;48.32;100610.80;1693944;85;21212;-81
2022/09/04 11:43:56;;;;;;;3.10;1.35;;;;;;;19.71;48.54;100610.09;1694017;85;21721;-82
2022/09/04 11:47:17;;;;;;;3.33;1.90;;;;;;;19.85;48.48;100612.50;1694131;85;21184;-77
2022/09/04 11:51:19;;;;;;;1.95;1.22;;;;;;;19.52;49.08;100616.96;1693999;85;21199;-77
2022/09/04 11:54:39;;;;;;;2.25;1.20;;;;;;;19.58;49.32;100618.84;1694043;85;21227;-77
2022/09/04 11:58:00;;;;;;;;;;;;;;;19.58;48.42;100613.30;1696495;84;21180;-82
2022/09/04 12:01:20;;;;;;;4.47;1.32;;;;;;;19.47;48.35;100620.96;1664748;86;20196;-77
2022/09/04 12:04:51;;;;;;;;;;;;;;;19.35;49.15;100627.80;1703676;84;21212;-82
2022/09/04 12:08:08;;;;;;;1.22;1.10;;;;;;;19.37;49.16;100621.47;1700562;83;20204;-83
2022/09/04 12:11:30;;;;;;;2.17;1.20;;;;;;;19.25;48.96;100629.39;1702423;84;21220;-77
2022/09/04 12:15:04;;;;;;;2.40;1.60;;;;;;;19.20;49.47;100622.29;1706846;84;21270;-82
2022/09/04 12:18:24;;;;;;;1.92;1.22;;;;;;;19.33;49.54;100619.38;1689663;85;21749;-81
2022/09/04 12:21:52;;;;;;;2.43;1.27;;;;;;;19.60;49.72;100625.04;1689777;85;21181;-77
2022/09/04 12:25:40;;;;;;;5.03;1.25;;;;;;;19.48;49.07;100626.84;1688906;85;21960;-77
2022/09/04 12:29:34;;;;;;;2.62;1.47;;;;;;;19.46;49.30;100628.98;1689506;85;21736;-77
2022/09/04 12:33:03;;;;;;;3.15;1.60;;;;;;;19.29;48.89;100630.61;1689644;85;21232;-77
2022/09/04 12:36:50;;;;;;;3.47;1.20;;;;;;;19.27;49.45;100619.75;1689029;85;21180;-82
2022/09/04 12:40:12;;;;;;;1.10;1.00;;;;;;;19.01;49.51;100622.21;1688560;85;21483;-82
2022/09/04 12:43:27;;;;;;;2.45;1.22;;;;;;;19.02;50.07;100628.06;1689691;85;21184;-82
2022/09/04 12:47:04;;;;;;;2.85;1.07;;;;;;;19.09;49.97;100629.38;1688612;85;22075;-82
2022/09/04 12:50:56;;;;;;;3.02;1.20;;;;;;;19.27;49.39;100632.77;1688709;85;21228;-83
2022/09/04 12:54:30;;;;;;;1.85;1.20;;;;;;;19.25;49.59;100628.00;1689452;85;21765;-82
2022/09/04 12:58:02;;;;;;;2.50;1.22;;;;;;;18.95;50.41;100630.55;1689391;85;21204;-77
2022/09/04 13:01:15;;;;;;;1.92;1.25;;;;;;;18.87;50.18;100640.00;1689623;85;21224;-82
2022/09/04 13:04:28;;;;;;;3.05;1.57;;;;;;;18.90;50.42;100639.53;1689791;85;21224;-77
2022/09/04 13:08:04;;;;;;;2.05;1.37;;;;;;;19.01;50.19;100645.77;1688461;85;21180;-77
2022/09/04 13:11:41;;;;;;;3.92;1.30;;;;;;;18.94;50.37;100646.34;1690187;84;21207;-77
2022/09/04 13:14:57;;;;;;;1.82;1.42;;;;;;;19.10;49.96;100647.20;1643056;85;21192;-82
2022/09/04 13:18:20;;;;;;;3.35;1.40;;;;;;;19.22;49.66;100657.56;1686547;85;21185;-77
2022/09/04 13:21:38;;;;;;;2.77;1.07;;;;;;;19.26;49.56;100658.81;1686557;85;21177;-82
2022/09/04 13:25:08;;;;;;;2.15;1.65;;;;;;;19.15;49.68;100654.84;1718570;83;21211;-77
2022/09/04 13:28:38;;;;;;;2.87;1.10;;;;;;;19.12;50.17;100656.13;1718634;83;21812;-76
2022/09/04 13:32:09;;;;;;;2.02;1.20;;;;;;;19.37;49.27;100654.76;1718771;83;21777;-76
2022/09/04 13:35:41;;;;;;;2.72;1.47;;;;;;;19.48;48.80;100654.59;1704330;83;21192;-76
2022/09/04 13:39:03;;;;;;;1.25;0.90;;;;;;;19.61;48.71;100662.80;1686345;85;21256;-77
2022/09/04 13:42:44;;;;;;;2.58;1.22;;;;;;;19.64;48.55;100661.52;1685336;85;21204;-82
2022/09/04 13:46:04;;;;;;;1.32;1.17;;;;;;;19.79;48.03;100668.09;1686267;85;21235;-77
2022/09/04 13:49:21;;;;;;;5.60;1.37;;;;;;;19.84;47.97;100673.80;1686107;85;21220;-82
2022/09/04 13:52:42;;;;;;;4.50;1.65;;;;;;;19.97;47.33;100672.83;1686324;85;21287;-77
2022/09/04 13:55:57;;;;;;;2.33;1.20;;;;;;;19.98;47.54;100671.20;1686187;85;21228;-84
2022/09/04 13:59:08;;;;;;;1.50;1.02;;;;;;;19.80;48.13;100667.85;1718348;83;21248;-83
2022/09/04 14:02:16;;;;;;;2.70;1.10;;;;;;;19.70;48.08;100670.84;1686552;85;21236;-80
2022/09/04 14:05:28;;;;;;;3.67;1.30;;;;;;;19.61;48.69;100671.13;1718699;83;21772;-81
2022/09/04 14:08:38;;;;;;;7.50;1.10;;;;;;;19.66;48.59;100674.06;1718242;81;21164;-83
2022/09/04 14:12:20;;;;;;;2.02;1.40;;;;;;;19.62;48.46;100677.01;1716351;82;21188;-84
2022/09/04 14:16:13;;;;;;;1.67;1.00;;;;;;;19.30;48.62;100676.70;1651003;87;21286;-85
2022/09/04 14:19:41;;;;;;;1.90;1.10;;;;;;;19.23;47.56;100678.66;1664262;85;21730;-83
2022/09/04 14:23:07;;;;;;;2.85;1.10;;;;;;;19.12;47.77;100676.08;1667941;85;21173;-82
2022/09/04 14:26:42;;;;;;;3.05;1.20;;;;;;;19.28;47.78;100681.61;1678060;85;21279;-76
2022/09/04 14:30:13;;;;;;;1.10;0.93;;;;;;;19.40;47.64;100683.44;1677951;85;21228;-83
2022/09/04 14:33:52;;;;;;;1.62;1.10;;;;;;;19.52;46.51;100689.09;1674736;85;21213;-82
2022/09/04 14:37:29;;;;;;;3.87;0.98;;;;;;;19.43;46.50;100686.83;1667760;85;21765;-84
2022/09/04 14:40:40;;;;;;;2.98;1.10;;;;;;;19.36;46.76;100699.38;1668284;85;21122;-83
2022/09/04 14:44:02;;;;;;;6.78;1.15;;;;;;;19.60;46.44;100697.72;1668844;85;21841;-78
2022/09/04 14:47:24;;;;;;;5.40;1.20;;;;;;;19.70;46.33;100706.92;1634888;88;21308;-76
2022/09/04 14:50:33;;;;;;;2.67;1.20;;;;;;;19.78;46.12;100721.37;1665547;84;21208;-76
2022/09/04 14:53:40;;;;;;;6.97;1.12;;;;;;;19.64;46.13;100712.84;1651079;86;21197;-82
2022/09/04 14:56:54;;;;;;;3.42;1.30;;;;;;;19.54;46.74;100721.64;1697198;84;21224;-77
2022/09/04 15:00:24;;;;;;;2.15;1.20;;;;;;;19.68;46.63;100713.25;1697256;84;21237;-76
2022/09/04 15:03:51;;;;;;;10.50;1.60;;;;;;;19.67;46.27;100702.69;1650831;87;21188;-82
2022/09/04 15:07:00;;;;;;;1.45;1.15;;;;;;;19.73;46.47;100714.80;1649491;86;21232;-77
2022/09/04 15:10:25;;;;;;;5.03;1.25;;;;;;;19.26;47.18;100708.19;1650904;87;21241;-82
2022/09/04 15:13:58;;;;;;;3.45;1.52;;;;;;;19.35;47.41;100709.62;1657166;84;21210;-82
2022/09/04 15:17:07;;;;;;;2.08;1.20;;;;;;;19.36;47.42;100713.23;1650910;87;21194;-76
2022/09/04 15:20:20;;;;;;;4.92;1.30;;;;;;;19.30;47.64;100714.99;1675221;85;21740;-76
2022/09/04 15:23:40;;;;;;;2.75;1.60;;;;;;;19.20;47.92;100711.02;1675169;85;21167;-76
2022/09/04 15:27:15;;;;;;;4.78;1.37;;;;;;;19.26;48.03;100710.96;1675193;85;21743;-76
2022/09/04 15:30:31;;;;;;;2.95;1.40;;;;;;;19.30;47.97;100716.92;1675085;85;21819;-76
2022/09/04 15:33:38;;;;;;;4.87;1.90;;;;;;;19.35;47.43;100719.87;1675060;85;21175;-82
2022/09/04 15:36:44;;;;;;;4.97;1.70;;;;;;;19.30;47.73;100725.23;1675140;85;21175;-82
2022/09/04 15:40:19;;;;;;;5.08;1.80;;;;;;;19.41;47.42;100721.73;1675115;85;21250;-77
2022/09/04 15:43:53;;;;;;;3.62;1.85;;;;;;;19.33;47.35;100720.61;1641175;85;21230;-82
2022/09/04 15:47:27;;;;;;;6.97;1.90;;;;;;;19.43;47.51;100722.89;1675065;85;21182;-82
2022/09/04 15:50:36;;;;;;;2.33;1.70;;;;;;;19.28;47.69;100723.20;1673859;85;21234;-83
2022/09/04 15:53:43;;;;;;;4.77;2.37;;;;;;;19.29;47.70;100717.97;1675296;85;21285;-76
2022/09/04 15:57:05;;;;;;;3.40;1.80;;;;;;;19.57;47.28;100721.71;1675066;85;21342;-76
2022/09/04 16:00:16;;;;;;;3.12;1.85;;;;;;;19.49;47.36;100724.78;1675248;85;21214;-83
2022/09/04 16:03:35;;;;;;;4.17;1.82;;;;;;;19.47;47.48;100723.60;1675171;85;21183;-83
2022/09/04 16:06:58;;;;;;;3.02;1.60;;;;;;;19.54;47.44;100721.64;1675215;85;21179;-77
2022/09/04 16:10:10;;;;;;;2.67;1.55;;;;;;;19.54;47.50;100727.19;1674117;85;21194;-77
2022/09/04 16:13:33;;;;;;;2.22;1.47;;;;;;;19.52;47.41;100728.47;1675197;85;21206;-77